Lady Lauren — WDE7767 — position and weather

sailwx.info

Track history (hours):
 
Tides and Currents Weather Stations Pressure Air Temp Water Temp Dewpoint Dewpoint Depression Visibility Wind Speed Wind Dir Waves Ship Positions

Lady Lauren

Owner: Louisiana Marine Towing LLC, Lafayette, LA. More information available from US FCC via Universal Licensing System and Coast Guard Vessel Documentation Center.

Last reported at 2015-Aug-23 08:25 UTC. Time now 2015-Sep-04 18:53 UTC.
Position N 29°33' W 090°55'.
Warning: this ship's position is 12 days out of date.

Length 22 m; draft 2.1 m.

Type: Towing. MMSI: 367397380.

Date/timePositionNaut miles runAvg speedWind from/ knotsBaromVisibWave heightAir tempDewpointWater temp
2015-Aug-23 08:25N 29°33' W 090°55'3 3.4
2015-Aug-23 07:27N 29°32' W 090°51'3 3.2
2015-Aug-23 06:33N 29°32' W 090°48'2 2.1
2015-Aug-23 05:33N 29°32' W 090°46'2 2.4
2015-Aug-23 04:33N 29°34' W 090°44'2 2.4
2015-Aug-23 03:33N 29°36' W 090°43'1 1.2
2015-Aug-23 02:33N 29°37' W 090°41'0 0.1
2015-Aug-23 01:33N 29°37' W 090°41'2 1.7
2015-Aug-23 00:33N 29°36' W 090°40'3 2.9
2015-Aug-22 23:33N 29°35' W 090°37'3 2.8
2015-Aug-22 22:33N 29°34' W 090°33'31 0.9
2015-Aug-21 12:08N 29°55' W 090°07'2 3.4
2015-Aug-21 11:33N 29°55' W 090°05'1 1.2
2015-Aug-21 10:25N 29°53' W 090°05'30 0.9
2015-Aug-20 02:06N 29°34' W 090°30'29 2.7
2015-Aug-19 15:28N 29°52' W 090°04'3 2.5
2015-Aug-19 14:17N 29°55' W 090°05'5 0.3
2015-Aug-18 18:25N 29°59' W 090°02'0 0.0
2015-Aug-18 17:30N 29°59' W 090°02'  
Track history (hours):
 
Tides and Currents Weather Stations Pressure Air Temp Water Temp Dewpoint Dewpoint Depression Visibility Wind Speed Wind Dir Waves Ship Positions

Lady Lauren

Owner: Louisiana Marine Towing LLC, Lafayette, LA. More information available from US FCC via Universal Licensing System and Coast Guard Vessel Documentation Center.

Last reported at 2015-Aug-23 08:25 UTC. Time now 2015-Sep-04 18:53 UTC.
Position N 29°33' W 090°55'.
Warning: this ship's position is 12 days out of date.

Length 22 m; draft 2.1 m.

Type: Towing. MMSI: 367397380.

Date/timePositionNaut miles runAvg speedWind from/ knotsBaromVisibWave heightAir tempDewpointWater temp
2015-Aug-23 08:25N 29°33' W 090°55'3 3.4
2015-Aug-23 07:27N 29°32' W 090°51'3 3.2
2015-Aug-23 06:33N 29°32' W 090°48'2 2.1
2015-Aug-23 05:33N 29°32' W 090°46'2 2.4
2015-Aug-23 04:33N 29°34' W 090°44'2 2.4
2015-Aug-23 03:33N 29°36' W 090°43'1 1.2
2015-Aug-23 02:33N 29°37' W 090°41'0 0.1
2015-Aug-23 01:33N 29°37' W 090°41'2 1.7
2015-Aug-23 00:33N 29°36' W 090°40'3 2.9
2015-Aug-22 23:33N 29°35' W 090°37'3 2.8
2015-Aug-22 22:33N 29°34' W 090°33'31 0.9
2015-Aug-21 12:08N 29°55' W 090°07'2 3.4
2015-Aug-21 11:33N 29°55' W 090°05'1 1.2
2015-Aug-21 10:25N 29°53' W 090°05'30 0.9
2015-Aug-20 02:06N 29°34' W 090°30'29 2.7
2015-Aug-19 15:28N 29°52' W 090°04'3 2.5
2015-Aug-19 14:17N 29°55' W 090°05'5 0.3
2015-Aug-18 18:25N 29°59' W 090°02'0 0.0
2015-Aug-18 17:30N 29°59' W 090°02'  

Dump ship's entire track history